createdAt,value
2023-05-16T00:00:10.981Z,11.39
2023-05-16T00:05:14.767Z,11.33
2023-05-16T00:10:16.064Z,11.33
2023-05-16T00:15:17.260Z,11.24
2023-05-16T00:20:23.254Z,11.17
2023-05-16T00:25:24.598Z,11.07
2023-05-16T00:30:26.041Z,11.02
2023-05-16T00:35:27.373Z,10.97
2023-05-16T00:40:28.744Z,11.00
2023-05-16T00:45:30.265Z,10.98
2023-05-16T00:50:31.557Z,10.96
2023-05-16T00:55:32.804Z,10.75
2023-05-16T01:00:34.106Z,10.62
2023-05-16T01:05:35.291Z,10.51
2023-05-16T01:10:36.521Z,10.44
2023-05-16T01:15:37.887Z,10.29
2023-05-16T01:20:39.125Z,10.12
2023-05-16T01:25:40.385Z,9.98
2023-05-16T01:30:41.695Z,9.92
2023-05-16T01:35:42.936Z,9.89
2023-05-16T01:40:44.067Z,9.94
2023-05-16T01:45:45.296Z,9.92
2023-05-16T01:50:46.543Z,9.91
2023-05-16T01:55:47.992Z,9.74
2023-05-16T02:00:49.303Z,9.64
2023-05-16T02:05:50.482Z,9.64
2023-05-16T02:10:51.637Z,9.55
2023-05-16T02:15:53.040Z,9.48
2023-05-16T02:20:54.217Z,9.41
2023-05-16T02:25:55.625Z,9.40
2023-05-16T02:30:57.496Z,9.22
2023-05-16T02:35:58.820Z,9.15
2023-05-16T02:41:00.047Z,9.08
2023-05-16T02:46:01.504Z,8.97
2023-05-16T02:51:02.738Z,8.87
2023-05-16T02:56:06.904Z,8.79
2023-05-16T03:01:08.208Z,8.65
2023-05-16T03:06:09.503Z,8.58
2023-05-16T03:11:11.118Z,8.56
2023-05-16T03:16:12.339Z,8.61
2023-05-16T03:21:13.610Z,8.57
2023-05-16T03:26:14.818Z,8.61
2023-05-16T03:31:16.295Z,8.58
2023-05-16T03:36:17.484Z,8.53
2023-05-16T03:41:18.788Z,8.57
2023-05-16T03:46:20.007Z,8.54
2023-05-16T03:51:21.629Z,8.47
2023-05-16T03:56:23.003Z,8.46
2023-05-16T04:01:24.166Z,8.44
2023-05-16T04:06:25.795Z,8.35
2023-05-16T04:11:27.235Z,8.35
2023-05-16T04:16:28.569Z,8.44
2023-05-16T04:21:29.780Z,8.43
2023-05-16T04:26:31.854Z,8.39
2023-05-16T04:31:33.120Z,8.27
2023-05-16T04:36:35.386Z,8.27
2023-05-16T04:41:36.599Z,8.27
2023-05-16T04:46:37.896Z,8.24
2023-05-16T04:51:39.107Z,8.32
2023-05-16T04:56:40.513Z,8.23
2023-05-16T05:01:42.005Z,8.21
2023-05-16T05:06:43.556Z,8.21
2023-05-16T05:11:44.862Z,8.21
2023-05-16T05:16:46.155Z,8.24
2023-05-16T05:21:47.323Z,8.17
2023-05-16T05:26:48.568Z,8.10
2023-05-16T05:31:49.827Z,7.96
2023-05-16T05:36:51.064Z,7.74
2023-05-16T05:41:52.267Z,7.80
2023-05-16T05:46:53.580Z,7.70
2023-05-16T05:51:54.887Z,7.75
2023-05-16T05:56:56.048Z,7.74
2023-05-16T06:01:58.024Z,7.80
2023-05-16T06:06:59.254Z,7.79
2023-05-16T06:12:00.622Z,7.92
2023-05-16T06:17:01.895Z,8.03
2023-05-16T06:22:03.166Z,8.15
2023-05-16T06:27:04.412Z,8.19
2023-05-16T06:32:05.782Z,8.24
2023-05-16T06:37:06.980Z,8.37
2023-05-16T06:42:08.222Z,8.48
2023-05-16T06:47:09.413Z,8.43
2023-05-16T06:52:11.472Z,8.46
2023-05-16T06:57:13.395Z,8.71
2023-05-16T07:02:14.638Z,8.91
2023-05-16T07:07:16.188Z,8.81
2023-05-16T07:12:17.601Z,8.84
2023-05-16T07:17:18.865Z,8.91
2023-05-16T07:22:20.229Z,9.08
2023-05-16T07:27:23.573Z,9.63
2023-05-16T07:32:25.051Z,9.85
2023-05-16T07:37:26.265Z,9.69
2023-05-16T07:42:27.475Z,9.83
2023-05-16T07:47:29.142Z,9.89
2023-05-16T07:52:30.574Z,9.90
2023-05-16T07:57:31.847Z,10.07
2023-05-16T08:02:33.137Z,10.15
2023-05-16T08:07:34.477Z,10.56
2023-05-16T08:12:35.763Z,10.79
2023-05-16T08:17:37.474Z,11.00
2023-05-16T08:22:38.713Z,11.00
2023-05-16T08:27:40.320Z,11.18
2023-05-16T08:32:41.586Z,11.22
2023-05-16T08:37:42.801Z,11.50
2023-05-16T08:42:45.407Z,10.93
2023-05-16T08:47:46.816Z,10.76
2023-05-16T08:52:48.131Z,11.08
2023-05-16T08:57:49.351Z,11.54
2023-05-16T09:02:50.871Z,12.18
2023-05-16T09:07:52.207Z,12.36
2023-05-16T09:12:53.441Z,13.30
2023-05-16T09:17:54.730Z,12.96
2023-05-16T09:22:56.067Z,12.42
2023-05-16T09:27:57.248Z,11.88
2023-05-16T09:32:59.225Z,12.10
2023-05-16T09:38:00.841Z,12.72
2023-05-16T09:43:02.102Z,12.40
2023-05-16T09:48:03.517Z,13.82
2023-05-16T09:53:04.753Z,14.22
2023-05-16T09:58:06.064Z,15.58
2023-05-16T10:03:07.462Z,16.12
2023-05-16T10:08:08.742Z,16.64
2023-05-16T10:13:09.978Z,14.97
2023-05-16T10:18:13.290Z,13.40
2023-05-16T10:23:14.755Z,15.21
2023-05-16T10:28:16.458Z,17.18
2023-05-16T10:33:17.782Z,15.29
2023-05-16T10:38:19.248Z,14.89
2023-05-16T10:43:20.594Z,14.60
2023-05-16T10:48:21.922Z,16.16
2023-05-16T10:53:23.267Z,15.81
2023-05-16T10:58:24.508Z,15.59
2023-05-16T11:03:28.172Z,17.13
2023-05-16T11:08:29.733Z,17.67
2023-05-16T11:13:30.918Z,16.43
2023-05-16T11:18:32.246Z,16.47
2023-05-16T11:23:33.580Z,16.25
2023-05-16T11:28:34.970Z,14.70
2023-05-16T11:33:37.047Z,14.60
2023-05-16T11:38:43.294Z,14.28
2023-05-16T11:43:45.052Z,13.81
2023-05-16T11:48:47.264Z,13.92
2023-05-16T11:53:49.810Z,14.31
2023-05-16T11:58:51.224Z,15.36
2023-05-16T12:03:53.160Z,16.00
2023-05-16T12:08:54.509Z,16.09
2023-05-16T12:13:55.937Z,16.07
2023-05-16T12:18:57.150Z,16.78
2023-05-16T12:24:01.474Z,16.67
2023-05-16T12:29:06.066Z,16.62
2023-05-16T12:34:07.318Z,15.82
2023-05-16T12:39:09.617Z,15.32
2023-05-16T12:44:11.960Z,14.89
2023-05-16T12:49:13.706Z,14.42
2023-05-16T12:54:14.986Z,14.02
2023-05-16T12:59:16.655Z,13.84
2023-05-16T13:04:20.152Z,14.24
2023-05-16T13:09:21.800Z,14.26
2023-05-16T13:14:23.052Z,14.82
2023-05-16T13:19:24.640Z,15.42
2023-05-16T13:24:26.080Z,15.52
2023-05-16T13:29:27.327Z,15.21
2023-05-16T13:34:28.585Z,15.52
2023-05-16T13:39:29.757Z,15.58
2023-05-16T13:44:31.138Z,15.21
2023-05-16T13:49:32.389Z,15.53
2023-05-16T13:54:33.646Z,15.47
2023-05-16T14:04:39.032Z,15.58
2023-05-16T14:09:42.504Z,16.21
2023-05-16T14:14:43.921Z,15.71
2023-05-16T14:19:45.751Z,15.62
2023-05-16T14:24:47.049Z,15.73
2023-05-16T14:29:48.917Z,15.52
2023-05-16T14:34:50.191Z,15.40
2023-05-16T14:39:52.843Z,15.30
2023-05-16T14:44:54.114Z,15.29
2023-05-16T14:49:56.222Z,15.11
2023-05-16T14:54:57.554Z,15.27
2023-05-16T14:59:58.751Z,15.34
2023-05-16T15:05:00.084Z,15.29
2023-05-16T15:10:01.841Z,15.46
2023-05-16T15:15:03.067Z,15.29
2023-05-16T15:20:04.402Z,15.06
2023-05-16T15:25:05.816Z,14.96
2023-05-16T15:30:07.033Z,14.75
2023-05-16T15:35:08.256Z,14.88
2023-05-16T15:40:09.712Z,15.03
2023-05-16T15:45:11.544Z,15.01
2023-05-16T15:50:13.502Z,14.96
2023-05-16T15:55:15.165Z,14.57
2023-05-16T16:00:16.395Z,14.35
2023-05-16T16:05:17.710Z,14.20
2023-05-16T16:10:19.932Z,14.17
2023-05-16T16:15:22.509Z,14.27
2023-05-16T16:20:23.834Z,14.48
2023-05-16T16:25:25.158Z,14.57
2023-05-16T16:30:26.867Z,14.43
2023-05-16T16:35:28.581Z,14.22
2023-05-16T16:40:30.032Z,14.06
2023-05-16T16:45:31.625Z,13.97
2023-05-16T16:50:34.286Z,13.94
2023-05-16T16:55:38.188Z,14.01
2023-05-16T17:00:40.766Z,13.76
2023-05-16T17:05:43.314Z,13.46
2023-05-16T17:10:44.560Z,13.30
2023-05-16T17:15:45.911Z,13.16
2023-05-16T17:20:47.138Z,12.99
2023-05-16T17:25:48.366Z,12.77
2023-05-16T17:30:49.589Z,12.76
2023-05-16T17:35:51.084Z,12.66
2023-05-16T17:40:52.863Z,12.56
2023-05-16T17:45:54.058Z,12.61
2023-05-16T17:50:55.260Z,12.61
2023-05-16T17:55:56.710Z,12.60
2023-05-16T18:00:58.042Z,12.46
2023-05-16T18:05:59.348Z,12.42
2023-05-16T18:11:01.654Z,12.31
2023-05-16T18:16:03.840Z,12.27
2023-05-16T18:21:06.191Z,12.26
2023-05-16T18:26:07.879Z,12.27
2023-05-16T18:31:09.101Z,12.21
2023-05-16T18:36:10.448Z,11.90
2023-05-16T18:41:11.615Z,12.09
2023-05-16T18:46:12.881Z,12.06
2023-05-16T18:51:14.099Z,11.97
2023-05-16T18:56:15.273Z,11.93
2023-05-16T19:01:16.711Z,11.98
2023-05-16T19:06:17.956Z,11.94
2023-05-16T19:11:19.307Z,11.83
2023-05-16T19:16:20.599Z,11.72
2023-05-16T19:21:21.861Z,11.74
2023-05-16T19:26:23.098Z,11.76
2023-05-16T19:31:24.301Z,11.68
2023-05-16T19:36:25.564Z,11.68
2023-05-16T19:41:27.487Z,11.69
2023-05-16T19:46:28.732Z,11.63
2023-05-16T19:51:40.869Z,11.62
2023-05-16T19:56:43.374Z,11.58
2023-05-16T20:01:44.948Z,11.52
2023-05-16T20:06:46.869Z,11.53
2023-05-16T20:11:48.056Z,11.48
2023-05-16T20:16:49.228Z,11.45
2023-05-16T20:21:50.466Z,11.46
2023-05-16T20:26:51.654Z,11.37
2023-05-16T20:31:52.903Z,11.36
2023-05-16T20:36:54.223Z,11.30
2023-05-16T20:41:55.555Z,11.19
2023-05-16T20:46:57.168Z,11.19
2023-05-16T20:51:58.445Z,11.15
2023-05-16T20:56:59.750Z,11.09
2023-05-16T21:02:01.012Z,11.00
2023-05-16T21:07:02.243Z,10.83
2023-05-16T21:12:03.473Z,10.73
2023-05-16T21:17:04.683Z,10.68
2023-05-16T21:22:05.964Z,10.59
2023-05-16T21:27:07.204Z,10.42
2023-05-16T21:32:09.170Z,10.34
2023-05-16T21:37:11.737Z,10.27
2023-05-16T21:42:12.979Z,10.16
2023-05-16T21:47:14.169Z,10.08
2023-05-16T21:52:15.592Z,10.03
2023-05-16T21:57:16.777Z,10.02
2023-05-16T22:02:22.569Z,10.04
2023-05-16T22:07:26.116Z,10.07
2023-05-16T22:12:27.369Z,9.99
2023-05-16T22:17:28.665Z,9.89
2023-05-16T22:22:29.934Z,9.79
2023-05-16T22:27:31.180Z,9.70
2023-05-16T22:32:32.466Z,9.57
2023-05-16T22:37:33.829Z,9.51
2023-05-16T22:42:35.039Z,9.43
2023-05-16T22:47:36.350Z,9.33
2023-05-16T22:52:41.195Z,9.26
2023-05-16T22:57:42.811Z,9.16
2023-05-16T23:02:44.101Z,9.06
2023-05-16T23:07:45.614Z,9.02
2023-05-16T23:12:47.032Z,8.89
2023-05-16T23:17:48.301Z,8.80
2023-05-16T23:22:49.600Z,8.70
2023-05-16T23:27:50.858Z,8.63
2023-05-16T23:32:52.158Z,8.59
2023-05-16T23:37:53.463Z,8.49
2023-05-16T23:42:54.648Z,8.42
2023-05-16T23:47:55.951Z,8.35
2023-05-16T23:52:57.285Z,8.24
2023-05-16T23:57:58.649Z,8.25
